sensor_id;sensor_type;location;lat;lon;timestamp;P1;durP1;ratioP1;P2;durP2;ratioP2
48026;SDS011;50714;49.208;5.364;2024-01-10T00:01:51;9.48;;;6.55;;
48026;SDS011;50714;49.208;5.364;2024-01-10T00:11:51;8.55;;;6.20;;
48026;SDS011;50714;49.208;5.364;2024-01-10T00:21:51;9.68;;;7.15;;
48026;SDS011;50714;49.208;5.364;2024-01-10T00:31:52;10.15;;;6.88;;
48026;SDS011;50714;49.208;5.364;2024-01-10T00:41:53;8.18;;;6.15;;
48026;SDS011;50714;49.208;5.364;2024-01-10T00:51:53;8.50;;;5.88;;
48026;SDS011;50714;49.208;5.364;2024-01-10T01:01:54;8.07;;;6.40;;
48026;SDS011;50714;49.208;5.364;2024-01-10T01:11:54;8.98;;;6.63;;
48026;SDS011;50714;49.208;5.364;2024-01-10T01:21:54;9.02;;;6.80;;
48026;SDS011;50714;49.208;5.364;2024-01-10T01:31:55;7.88;;;6.05;;
48026;SDS011;50714;49.208;5.364;2024-01-10T01:41:55;10.25;;;7.05;;
48026;SDS011;50714;49.208;5.364;2024-01-10T01:51:55;9.13;;;6.60;;
48026;SDS011;50714;49.208;5.364;2024-01-10T02:01:56;8.57;;;6.90;;
48026;SDS011;50714;49.208;5.364;2024-01-10T02:12:01;9.30;;;6.55;;
48026;SDS011;50714;49.208;5.364;2024-01-10T02:22:03;8.50;;;5.53;;
48026;SDS011;50714;49.208;5.364;2024-01-10T02:32:04;7.85;;;5.78;;
48026;SDS011;50714;49.208;5.364;2024-01-10T02:42:05;9.48;;;6.43;;
48026;SDS011;50714;49.208;5.364;2024-01-10T02:52:05;8.52;;;6.45;;
48026;SDS011;50714;49.208;5.364;2024-01-10T03:02:05;12.45;;;7.97;;
48026;SDS011;50714;49.208;5.364;2024-01-10T03:12:06;10.90;;;7.80;;
48026;SDS011;50714;49.208;5.364;2024-01-10T03:22:06;10.40;;;8.00;;
48026;SDS011;50714;49.208;5.364;2024-01-10T03:32:07;13.18;;;9.38;;
48026;SDS011;50714;49.208;5.364;2024-01-10T03:42:07;10.77;;;8.20;;
48026;SDS011;50714;49.208;5.364;2024-01-10T03:52:07;10.57;;;7.22;;
48026;SDS011;50714;49.208;5.364;2024-01-10T04:02:08;10.15;;;7.22;;
48026;SDS011;50714;49.208;5.364;2024-01-10T04:12:08;10.45;;;7.40;;
48026;SDS011;50714;49.208;5.364;2024-01-10T04:22:08;14.27;;;8.40;;
48026;SDS011;50714;49.208;5.364;2024-01-10T04:32:09;9.98;;;7.07;;
48026;SDS011;50714;49.208;5.364;2024-01-10T04:42:12;11.57;;;8.35;;
48026;SDS011;50714;49.208;5.364;2024-01-10T04:52:13;11.43;;;8.48;;
48026;SDS011;50714;49.208;5.364;2024-01-10T05:02:13;11.77;;;8.45;;
48026;SDS011;50714;49.208;5.364;2024-01-10T05:12:14;11.73;;;8.27;;
48026;SDS011;50714;49.208;5.364;2024-01-10T05:22:14;18.48;;;12.52;;
48026;SDS011;50714;49.208;5.364;2024-01-10T05:32:14;13.20;;;10.10;;
48026;SDS011;50714;49.208;5.364;2024-01-10T05:42:15;9.63;;;7.45;;
48026;SDS011;50714;49.208;5.364;2024-01-10T05:52:15;9.15;;;7.10;;
48026;SDS011;50714;49.208;5.364;2024-01-10T06:02:15;9.80;;;7.75;;
48026;SDS011;50714;49.208;5.364;2024-01-10T06:12:16;9.90;;;7.20;;
48026;SDS011;50714;49.208;5.364;2024-01-10T06:22:17;11.20;;;7.57;;
48026;SDS011;50714;49.208;5.364;2024-01-10T06:32:18;9.68;;;7.45;;
48026;SDS011;50714;49.208;5.364;2024-01-10T06:42:18;11.68;;;8.40;;
48026;SDS011;50714;49.208;5.364;2024-01-10T06:52:18;10.88;;;7.95;;
48026;SDS011;50714;49.208;5.364;2024-01-10T07:02:19;16.95;;;11.80;;
48026;SDS011;50714;49.208;5.364;2024-01-10T07:12:19;36.10;;;21.40;;
48026;SDS011;50714;49.208;5.364;2024-01-10T07:22:19;30.02;;;20.58;;
48026;SDS011;50714;49.208;5.364;2024-01-10T07:32:20;14.95;;;11.57;;
48026;SDS011;50714;49.208;5.364;2024-01-10T07:42:20;25.67;;;15.55;;
48026;SDS011;50714;49.208;5.364;2024-01-10T07:52:21;25.33;;;15.75;;
48026;SDS011;50714;49.208;5.364;2024-01-10T08:02:21;15.63;;;10.63;;
48026;SDS011;50714;49.208;5.364;2024-01-10T08:12:22;12.50;;;9.50;;
48026;SDS011;50714;49.208;5.364;2024-01-10T08:22:22;14.23;;;10.85;;
48026;SDS011;50714;49.208;5.364;2024-01-10T08:32:23;13.52;;;9.40;;
48026;SDS011;50714;49.208;5.364;2024-01-10T08:42:23;15.15;;;11.82;;
48026;SDS011;50714;49.208;5.364;2024-01-10T08:52:23;12.63;;;10.45;;
48026;SDS011;50714;49.208;5.364;2024-01-10T09:02:24;14.90;;;10.82;;
48026;SDS011;50714;49.208;5.364;2024-01-10T09:12:25;15.10;;;10.77;;
48026;SDS011;50714;49.208;5.364;2024-01-10T09:22:25;13.05;;;10.23;;
48026;SDS011;50714;49.208;5.364;2024-01-10T09:32:26;14.68;;;11.55;;
48026;SDS011;50714;49.208;5.364;2024-01-10T09:42:26;14.15;;;11.00;;
48026;SDS011;50714;49.208;5.364;2024-01-10T09:52:27;16.08;;;11.77;;
48026;SDS011;50714;49.208;5.364;2024-01-10T10:02:27;13.35;;;10.27;;
48026;SDS011;50714;49.208;5.364;2024-01-10T10:23:05;14.38;;;10.65;;
48026;SDS011;50714;49.208;5.364;2024-01-10T10:33:07;14.13;;;10.80;;
48026;SDS011;50714;49.208;5.364;2024-01-10T10:43:10;13.38;;;10.75;;
48026;SDS011;50714;49.208;5.364;2024-01-10T10:53:14;17.13;;;12.70;;
48026;SDS011;50714;49.208;5.364;2024-01-10T11:03:15;16.55;;;13.60;;
48026;SDS011;50714;49.208;5.364;2024-01-10T11:13:25;18.85;;;13.75;;
48026;SDS011;50714;49.208;5.364;2024-01-10T11:23:45;19.15;;;14.10;;
48026;SDS011;50714;49.208;5.364;2024-01-10T11:33:49;16.63;;;12.80;;
48026;SDS011;50714;49.208;5.364;2024-01-10T11:54:10;19.27;;;14.73;;
48026;SDS011;50714;49.208;5.364;2024-01-10T12:04:11;17.95;;;13.85;;
48026;SDS011;50714;49.208;5.364;2024-01-10T12:14:11;19.77;;;15.55;;
48026;SDS011;50714;49.208;5.364;2024-01-10T12:24:12;25.58;;;19.02;;
48026;SDS011;50714;49.208;5.364;2024-01-10T12:34:13;24.40;;;18.70;;
48026;SDS011;50714;49.208;5.364;2024-01-10T12:44:15;26.70;;;20.88;;
48026;SDS011;50714;49.208;5.364;2024-01-10T12:54:15;17.10;;;12.70;;
48026;SDS011;50714;49.208;5.364;2024-01-10T13:04:17;18.92;;;14.38;;
48026;SDS011;50714;49.208;5.364;2024-01-10T13:14:17;18.15;;;13.68;;
48026;SDS011;50714;49.208;5.364;2024-01-10T13:24:18;15.80;;;12.60;;
48026;SDS011;50714;49.208;5.364;2024-01-10T13:34:18;27.38;;;21.10;;
48026;SDS011;50714;49.208;5.364;2024-01-10T13:44:18;39.20;;;29.50;;
48026;SDS011;50714;49.208;5.364;2024-01-10T13:54:19;21.70;;;15.70;;
48026;SDS011;50714;49.208;5.364;2024-01-10T14:04:19;18.90;;;15.23;;
48026;SDS011;50714;49.208;5.364;2024-01-10T14:14:19;21.08;;;14.65;;
48026;SDS011;50714;49.208;5.364;2024-01-10T14:24:19;17.88;;;14.32;;
48026;SDS011;50714;49.208;5.364;2024-01-10T14:34:20;22.02;;;17.88;;
48026;SDS011;50714;49.208;5.364;2024-01-10T14:44:20;19.88;;;15.05;;
48026;SDS011;50714;49.208;5.364;2024-01-10T14:54:20;19.73;;;16.15;;
48026;SDS011;50714;49.208;5.364;2024-01-10T15:04:21;16.65;;;14.10;;
48026;SDS011;50714;49.208;5.364;2024-01-10T15:14:22;17.20;;;13.68;;
48026;SDS011;50714;49.208;5.364;2024-01-10T15:24:22;18.33;;;13.18;;
48026;SDS011;50714;49.208;5.364;2024-01-10T15:34:22;17.52;;;14.07;;
48026;SDS011;50714;49.208;5.364;2024-01-10T15:44:24;16.67;;;13.27;;
48026;SDS011;50714;49.208;5.364;2024-01-10T15:54:24;16.95;;;12.85;;
48026;SDS011;50714;49.208;5.364;2024-01-10T16:04:25;17.25;;;13.18;;
48026;SDS011;50714;49.208;5.364;2024-01-10T16:14:25;17.50;;;13.32;;
48026;SDS011;50714;49.208;5.364;2024-01-10T16:24:25;19.40;;;14.13;;
48026;SDS011;50714;49.208;5.364;2024-01-10T16:34:26;15.05;;;12.35;;
48026;SDS011;50714;49.208;5.364;2024-01-10T16:44:26;18.42;;;13.82;;
48026;SDS011;50714;49.208;5.364;2024-01-10T16:54:26;23.48;;;16.48;;
48026;SDS011;50714;49.208;5.364;2024-01-10T17:04:27;16.83;;;14.43;;
48026;SDS011;50714;49.208;5.364;2024-01-10T17:14:27;19.48;;;14.93;;
48026;SDS011;50714;49.208;5.364;2024-01-10T17:24:29;21.95;;;17.05;;
48026;SDS011;50714;49.208;5.364;2024-01-10T17:34:29;17.95;;;14.93;;
48026;SDS011;50714;49.208;5.364;2024-01-10T17:44:30;17.83;;;14.43;;
48026;SDS011;50714;49.208;5.364;2024-01-10T17:54:36;20.13;;;16.20;;
48026;SDS011;50714;49.208;5.364;2024-01-10T18:04:36;19.83;;;15.65;;
48026;SDS011;50714;49.208;5.364;2024-01-10T18:14:38;22.42;;;16.35;;
48026;SDS011;50714;49.208;5.364;2024-01-10T18:24:38;19.83;;;16.40;;
48026;SDS011;50714;49.208;5.364;2024-01-10T18:34:38;18.15;;;15.88;;
48026;SDS011;50714;49.208;5.364;2024-01-10T18:44:38;18.92;;;14.57;;
48026;SDS011;50714;49.208;5.364;2024-01-10T18:54:39;20.95;;;18.65;;
48026;SDS011;50714;49.208;5.364;2024-01-10T19:04:41;24.08;;;18.73;;
48026;SDS011;50714;49.208;5.364;2024-01-10T19:14:41;19.50;;;15.48;;
48026;SDS011;50714;49.208;5.364;2024-01-10T19:24:41;16.92;;;13.68;;
48026;SDS011;50714;49.208;5.364;2024-01-10T19:34:42;20.02;;;15.32;;
48026;SDS011;50714;49.208;5.364;2024-01-10T19:44:45;17.05;;;12.95;;
48026;SDS011;50714;49.208;5.364;2024-01-10T19:54:45;18.15;;;14.80;;
48026;SDS011;50714;49.208;5.364;2024-01-10T20:04:46;16.10;;;13.23;;
48026;SDS011;50714;49.208;5.364;2024-01-10T20:14:48;17.65;;;14.13;;
48026;SDS011;50714;49.208;5.364;2024-01-10T20:24:50;18.13;;;14.38;;
48026;SDS011;50714;49.208;5.364;2024-01-10T20:34:50;16.85;;;13.85;;
48026;SDS011;50714;49.208;5.364;2024-01-10T20:44:51;16.83;;;12.95;;
48026;SDS011;50714;49.208;5.364;2024-01-10T20:54:51;19.10;;;14.32;;
48026;SDS011;50714;49.208;5.364;2024-01-10T21:04:52;18.05;;;14.35;;
48026;SDS011;50714;49.208;5.364;2024-01-10T21:14:52;18.77;;;14.70;;
48026;SDS011;50714;49.208;5.364;2024-01-10T21:24:56;18.33;;;14.65;;
48026;SDS011;50714;49.208;5.364;2024-01-10T21:34:56;16.90;;;13.60;;
48026;SDS011;50714;49.208;5.364;2024-01-10T21:44:57;21.27;;;16.38;;
48026;SDS011;50714;49.208;5.364;2024-01-10T21:54:57;19.20;;;14.95;;
48026;SDS011;50714;49.208;5.364;2024-01-10T22:04:58;19.00;;;15.95;;
48026;SDS011;50714;49.208;5.364;2024-01-10T22:14:58;22.73;;;18.27;;
48026;SDS011;50714;49.208;5.364;2024-01-10T22:24:58;17.95;;;14.32;;
48026;SDS011;50714;49.208;5.364;2024-01-10T22:34:59;18.50;;;14.70;;
48026;SDS011;50714;49.208;5.364;2024-01-10T22:44:59;20.25;;;15.25;;
48026;SDS011;50714;49.208;5.364;2024-01-10T22:54:59;20.33;;;16.05;;
48026;SDS011;50714;49.208;5.364;2024-01-10T23:05:01;18.95;;;14.95;;
48026;SDS011;50714;49.208;5.364;2024-01-10T23:15:01;20.85;;;15.57;;
48026;SDS011;50714;49.208;5.364;2024-01-10T23:25:01;19.83;;;16.10;;
48026;SDS011;50714;49.208;5.364;2024-01-10T23:35:01;20.27;;;15.82;;
48026;SDS011;50714;49.208;5.364;2024-01-10T23:45:02;19.45;;;15.50;;
48026;SDS011;50714;49.208;5.364;2024-01-10T23:55:03;17.80;;;13.57;;
